createdAt,value
2018-12-27T00:00:01.254Z,99177.33
2018-12-27T00:01:04.574Z,99181.39
2018-12-27T00:02:10.615Z,99181.39
2018-12-27T00:03:15.174Z,99181.02
2018-12-27T00:04:18.102Z,99181.91
2018-12-27T00:05:21.087Z,99179.81
2018-12-27T00:06:24.037Z,99178.77
2018-12-27T00:07:29.917Z,99174.05
2018-12-27T00:08:32.940Z,99179.30
2018-12-27T00:09:35.881Z,99179.30
2018-12-27T00:10:38.895Z,99182.44
2018-12-27T00:11:41.807Z,99176.98
2018-12-27T00:12:51.473Z,99172.12
2018-12-27T00:13:51.785Z,99174.11
2018-12-27T00:14:56.749Z,99174.40
2018-12-27T00:16:00.596Z,99168.70
2018-12-27T00:17:04.101Z,99176.83
2018-12-27T00:18:12.039Z,99177.17
2018-12-27T00:19:18.537Z,99177.17
2018-12-27T00:20:22.171Z,99165.34
2018-12-27T00:21:25.263Z,99175.37
2018-12-27T00:22:28.258Z,99172.69
2018-12-27T00:23:31.320Z,99168.83
2018-12-27T00:24:34.315Z,99168.28
2018-12-27T00:25:38.169Z,99176.70
2018-12-27T00:26:41.205Z,99177.76
2018-12-27T00:27:44.150Z,99178.31
2018-12-27T00:28:49.218Z,99175.08
2018-12-27T00:29:53.309Z,99174.15
2018-12-27T00:30:56.259Z,99175.16
2018-12-27T00:31:59.602Z,99164.92
2018-12-27T00:33:03.304Z,99164.92
2018-12-27T00:34:06.928Z,99173.53
2018-12-27T00:35:09.859Z,99171.65
2018-12-27T00:36:12.802Z,99169.41
2018-12-27T00:37:15.698Z,99165.34
2018-12-27T00:38:19.008Z,99167.64
2018-12-27T00:39:21.960Z,99163.42
2018-12-27T00:40:25.285Z,99163.42
2018-12-27T00:41:28.666Z,99163.13
2018-12-27T00:42:32.030Z,99159.31
2018-12-27T00:43:37.270Z,99159.31
2018-12-27T00:44:42.369Z,99159.12
2018-12-27T00:45:45.283Z,99163.53
2018-12-27T00:46:48.210Z,99151.27
2018-12-27T00:47:51.127Z,99151.27
2018-12-27T00:48:54.158Z,99160.65
2018-12-27T00:49:59.810Z,99153.17
2018-12-27T00:51:03.022Z,99154.01
2018-12-27T00:52:05.936Z,99148.45
2018-12-27T00:53:08.959Z,99156.92
2018-12-27T00:54:11.903Z,99156.20
2018-12-27T00:55:15.639Z,99152.65
2018-12-27T00:56:19.988Z,99156.42
2018-12-27T00:57:23.205Z,99154.48
2018-12-27T00:58:26.163Z,99156.38
2018-12-27T00:59:29.171Z,99156.38
2018-12-27T01:00:34.073Z,99161.79
2018-12-27T01:01:36.707Z,99161.79
2018-12-27T01:02:39.612Z,99169.33
2018-12-27T01:03:42.916Z,99161.28
2018-12-27T01:04:45.849Z,99157.02
2018-12-27T01:05:48.849Z,99152.98
2018-12-27T01:06:51.768Z,99151.64
2018-12-27T01:07:55.123Z,99148.92
2018-12-27T01:08:58.058Z,99150.30
2018-12-27T01:10:01.322Z,99156.64
2018-12-27T01:11:04.226Z,99154.17
2018-12-27T01:12:07.129Z,99154.17
2018-12-27T01:13:10.075Z,99153.81
2018-12-27T01:14:13.011Z,99152.14
2018-12-27T01:15:16.009Z,99150.84
2018-12-27T01:16:19.226Z,99151.35
2018-12-27T01:17:23.276Z,99148.76
2018-12-27T01:18:26.252Z,99148.34
2018-12-27T01:19:29.180Z,99151.82
2018-12-27T01:20:32.161Z,99149.05
2018-12-27T01:21:35.085Z,99148.97
2018-12-27T01:22:38.375Z,99139.19
2018-12-27T01:23:41.316Z,99146.69
2018-12-27T01:24:44.190Z,99143.51
2018-12-27T01:25:47.145Z,99147.87
2018-12-27T01:26:53.042Z,99147.87
2018-12-27T01:27:57.879Z,99151.94
2018-12-27T01:29:01.093Z,99149.55
2018-12-27T01:30:08.129Z,99140.88
2018-12-27T01:31:10.808Z,99151.94
2018-12-27T01:32:14.177Z,99151.94
2018-12-27T01:33:18.785Z,99156.42
2018-12-27T01:34:22.154Z,99152.98
2018-12-27T01:35:25.359Z,99151.69
2018-12-27T01:36:28.694Z,99145.52
2018-12-27T01:37:31.765Z,99149.30
2018-12-27T01:38:34.761Z,99147.87
2018-12-27T01:39:37.679Z,99140.98
2018-12-27T01:40:40.574Z,99142.36
2018-12-27T01:41:43.763Z,99140.45
2018-12-27T01:42:47.261Z,99141.11
2018-12-27T01:43:52.238Z,99140.48
2018-12-27T01:44:54.897Z,99140.48
2018-12-27T01:46:00.241Z,99138.95
2018-12-27T01:47:03.156Z,99129.30
2018-12-27T01:48:06.412Z,99133.03
2018-12-27T01:49:09.402Z,99133.03
2018-12-27T01:50:12.351Z,99131.89
2018-12-27T01:51:15.272Z,99129.67
2018-12-27T01:52:19.474Z,99126.23
2018-12-27T01:53:25.506Z,99126.23
2018-12-27T01:54:30.018Z,99125.45
2018-12-27T01:55:32.954Z,99119.83
2018-12-27T01:56:35.899Z,99122.26
2018-12-27T01:57:38.782Z,99124.98
2018-12-27T01:58:41.785Z,99124.98
2018-12-27T01:59:47.197Z,99126.16
2018-12-27T02:00:50.352Z,99125.08
2018-12-27T02:01:53.257Z,99122.86
2018-12-27T02:02:58.607Z,99124.48
2018-12-27T02:04:01.608Z,99123.98
2018-12-27T02:05:06.803Z,99120.71
2018-12-27T02:06:10.207Z,99120.71
2018-12-27T02:07:13.670Z,99123.64
2018-12-27T02:08:17.037Z,99128.55
2018-12-27T02:09:20.034Z,99128.00
2018-12-27T02:10:22.984Z,99119.28
2018-12-27T02:11:26.372Z,99121.52
2018-12-27T02:12:29.669Z,99126.13
2018-12-27T02:13:35.424Z,99128.27
2018-12-27T02:14:39.904Z,99125.08
2018-12-27T02:15:43.287Z,99118.79
2018-12-27T02:16:46.290Z,99129.39
2018-12-27T02:17:49.284Z,99127.50
2018-12-27T02:18:52.734Z,99121.84
2018-12-27T02:19:57.102Z,99117.09
2018-12-27T02:21:00.109Z,99124.60
2018-12-27T02:22:03.018Z,99127.87
2018-12-27T02:23:06.401Z,99125.70
2018-12-27T02:24:14.539Z,99125.70
2018-12-27T02:25:17.989Z,99123.84
2018-12-27T02:26:22.882Z,99125.23
2018-12-27T02:27:27.214Z,99122.05
2018-12-27T02:28:30.172Z,99116.94
2018-12-27T02:29:33.121Z,99117.70
2018-12-27T02:30:36.605Z,99113.58
2018-12-27T02:31:39.822Z,99110.27
2018-12-27T02:32:42.739Z,99110.61
2018-12-27T02:33:45.844Z,99115.17
2018-12-27T02:34:48.842Z,99116.72
2018-12-27T02:35:52.709Z,99113.65
2018-12-27T02:36:55.629Z,99103.13
2018-12-27T02:37:58.996Z,99104.73
2018-12-27T02:39:04.742Z,99111.10
2018-12-27T02:40:07.712Z,99105.25
2018-12-27T02:41:10.648Z,99099.45
2018-12-27T02:42:14.911Z,99112.11
2018-12-27T02:43:17.876Z,99097.06
2018-12-27T02:44:21.117Z,99097.06
2018-12-27T02:45:25.339Z,99103.11
2018-12-27T02:46:28.355Z,99107.38
2018-12-27T02:47:31.768Z,99102.30
2018-12-27T02:48:37.412Z,99106.83
2018-12-27T02:49:40.396Z,99106.83
2018-12-27T02:50:48.025Z,99105.25
2018-12-27T02:51:51.000Z,99101.77
2018-12-27T02:52:53.948Z,99101.77
2018-12-27T02:53:56.872Z,99102.05
2018-12-27T02:54:59.769Z,99088.40
2018-12-27T02:56:02.808Z,99092.72
2018-12-27T02:57:06.797Z,99073.90
2018-12-27T02:58:09.736Z,99090.37
2018-12-27T02:59:12.655Z,99086.90
2018-12-27T03:00:15.580Z,99086.90
2018-12-27T03:01:18.507Z,99090.37
2018-12-27T03:02:21.452Z,99083.80
2018-12-27T03:03:24.836Z,99077.66
2018-12-27T03:04:27.734Z,99080.18
2018-12-27T03:05:30.635Z,99072.69
2018-12-27T03:06:34.065Z,99078.22
2018-12-27T03:07:37.077Z,99080.06
2018-12-27T03:08:40.065Z,99079.27
2018-12-27T03:09:43.291Z,99077.59
2018-12-27T03:10:46.220Z,99074.91
2018-12-27T03:11:49.183Z,99074.91
2018-12-27T03:12:54.419Z,99072.56
2018-12-27T03:14:16.174Z,99061.55
2018-12-27T03:15:24.281Z,99061.55
2018-12-27T03:16:27.204Z,99069.34
2018-12-27T03:17:30.144Z,99059.53
2018-12-27T03:18:33.098Z,99074.32
2018-12-27T03:19:36.064Z,99064.64
2018-12-27T03:20:42.145Z,99068.16
2018-12-27T03:21:45.384Z,99059.20
2018-12-27T03:22:48.308Z,99059.11
2018-12-27T03:23:51.231Z,99052.88
2018-12-27T03:24:56.392Z,99048.77
2018-12-27T03:25:59.356Z,99054.46
2018-12-27T03:27:02.813Z,99045.28
2018-12-27T03:28:06.084Z,99058.19
2018-12-27T03:29:09.056Z,99056.09
2018-12-27T03:30:12.395Z,99056.09
2018-12-27T03:31:15.322Z,99050.23
2018-12-27T03:32:18.333Z,99056.94
2018-12-27T03:33:21.294Z,99056.34
2018-12-27T03:34:24.499Z,99056.01
2018-12-27T03:35:30.408Z,99053.33
2018-12-27T03:36:33.406Z,99051.98
2018-12-27T03:37:36.334Z,99054.66
2018-12-27T03:38:39.737Z,99054.66
2018-12-27T03:39:42.665Z,99048.68
2018-12-27T03:40:46.037Z,99047.83
2018-12-27T03:41:49.027Z,99047.63
2018-12-27T03:42:52.383Z,99042.84
2018-12-27T03:43:55.589Z,99046.83
2018-12-27T03:44:58.521Z,99046.83
2018-12-27T03:46:01.721Z,99047.34
2018-12-27T03:47:04.757Z,99044.91
2018-12-27T03:48:08.120Z,99044.91
2018-12-27T03:49:11.550Z,99042.22
2018-12-27T03:50:14.481Z,99041.47
2018-12-27T03:51:17.413Z,99038.54
2018-12-27T03:52:20.694Z,99038.54
2018-12-27T03:53:23.648Z,99038.58
2018-12-27T03:54:26.535Z,99038.58
2018-12-27T03:55:29.453Z,99039.05
2018-12-27T03:56:32.774Z,99033.42
2018-12-27T03:57:35.785Z,99037.70
2018-12-27T03:58:40.331Z,99030.25
2018-12-27T03:59:45.437Z,99036.41
2018-12-27T04:00:48.339Z,99032.39
2018-12-27T04:01:51.317Z,99036.70
2018-12-27T04:02:54.277Z,99033.51
2018-12-27T04:04:01.386Z,99035.61
2018-12-27T04:05:02.148Z,99035.61
2018-12-27T04:06:05.238Z,99034.27
2018-12-27T04:07:08.227Z,99034.27
2018-12-27T04:08:11.181Z,99028.15
2018-12-27T04:09:14.084Z,99029.11
2018-12-27T04:10:17.024Z,99025.80
2018-12-27T04:11:20.229Z,99025.80
2018-12-27T04:12:23.135Z,99031.13
2018-12-27T04:13:26.125Z,99024.09
2018-12-27T04:14:29.459Z,99022.99
2018-12-27T04:15:32.363Z,99022.70
2018-12-27T04:16:38.235Z,99022.70
2018-12-27T04:17:43.944Z,99016.67
2018-12-27T04:18:47.282Z,99016.67
2018-12-27T04:19:50.187Z,99020.69
2018-12-27T04:20:53.104Z,99015.04
2018-12-27T04:21:56.018Z,99014.20
2018-12-27T04:22:59.025Z,99017.09
2018-12-27T04:24:05.178Z,99023.80
2018-12-27T04:25:10.933Z,99023.80
2018-12-27T04:26:13.854Z,99019.34
2018-12-27T04:27:16.801Z,99017.54
2018-12-27T04:28:19.801Z,99015.22
2018-12-27T04:29:22.760Z,99017.89
2018-12-27T04:30:28.979Z,99019.82
2018-12-27T04:31:31.991Z,99016.11
2018-12-27T04:32:35.028Z,99012.58
2018-12-27T04:33:38.024Z,99012.58
2018-12-27T04:34:40.973Z,99016.24
2018-12-27T04:35:43.902Z,99016.24
2018-12-27T04:36:47.294Z,99021.84
2018-12-27T04:37:50.216Z,99008.12
2018-12-27T04:38:53.620Z,99008.12
2018-12-27T04:39:56.547Z,99012.40
2018-12-27T04:40:59.589Z,99020.44
2018-12-27T04:42:02.505Z,99013.73
2018-12-27T04:43:05.939Z,99019.38
2018-12-27T04:44:08.926Z,99009.96
2018-12-27T04:45:11.880Z,99025.09
2018-12-27T04:46:15.308Z,99018.53
2018-12-27T04:47:18.267Z,99018.57
2018-12-27T04:48:21.255Z,99018.78
2018-12-27T04:49:24.590Z,99017.23
2018-12-27T04:50:27.517Z,99009.91
2018-12-27T04:51:30.502Z,99011.38
2018-12-27T04:52:33.514Z,99023.14
2018-12-27T04:53:36.481Z,99019.23
2018-12-27T04:54:39.494Z,99019.23
2018-12-27T04:55:42.971Z,99025.53
2018-12-27T04:56:45.955Z,99021.34
2018-12-27T04:57:48.931Z,99024.06
2018-12-27T04:58:51.855Z,99023.44
2018-12-27T04:59:55.378Z,99014.77
2018-12-27T05:00:58.840Z,99018.13
2018-12-27T05:02:02.145Z,99018.13
2018-12-27T05:03:05.079Z,99006.41
2018-12-27T05:04:08.016Z,99010.47
2018-12-27T05:05:10.965Z,99013.14
2018-12-27T05:06:13.942Z,99008.83
2018-12-27T05:07:16.926Z,99008.75
2018-12-27T05:08:20.211Z,99007.61
2018-12-27T05:09:23.116Z,99010.66
2018-12-27T05:10:26.036Z,99001.06
2018-12-27T05:11:29.062Z,99001.06
2018-12-27T05:12:32.164Z,99004.34
2018-12-27T05:13:43.182Z,99011.58
2018-12-27T05:14:46.106Z,99008.41
2018-12-27T05:15:49.531Z,99008.70
2018-12-27T05:16:52.517Z,99011.33
2018-12-27T05:17:55.419Z,99011.83
2018-12-27T05:18:58.378Z,99012.09
2018-12-27T05:20:02.835Z,99016.69
2018-12-27T05:21:05.762Z,99012.42
2018-12-27T05:22:08.777Z,99017.65
2018-12-27T05:23:14.156Z,99021.91
2018-12-27T05:24:17.098Z,99019.28
2018-12-27T05:25:20.123Z,99013.38
2018-12-27T05:26:23.359Z,99016.06
2018-12-27T05:27:26.369Z,99016.06
2018-12-27T05:28:29.273Z,99017.19
2018-12-27T05:29:32.184Z,99016.89
2018-12-27T05:30:35.038Z,99016.89
2018-12-27T05:31:38.465Z,99018.84
2018-12-27T05:32:43.446Z,99018.84
2018-12-27T05:33:46.346Z,99016.88
2018-12-27T05:34:49.255Z,99016.88
2018-12-27T05:35:52.186Z,99007.11
2018-12-27T05:36:55.201Z,99012.71
2018-12-27T05:37:58.152Z,99021.19
2018-12-27T05:39:01.434Z,99020.60
2018-12-27T05:40:04.338Z,99020.60
2018-12-27T05:41:07.237Z,99019.02
2018-12-27T05:42:10.251Z,99021.14
2018-12-27T05:43:13.212Z,99015.54
2018-12-27T05:44:16.638Z,99017.29
2018-12-27T05:45:20.008Z,99012.96
2018-12-27T05:46:22.930Z,99011.72
2018-12-27T05:47:25.921Z,99014.10
2018-12-27T05:48:28.834Z,99014.80
2018-12-27T05:49:31.817Z,99014.46
2018-12-27T05:50:35.302Z,99019.26
2018-12-27T05:51:41.157Z,99018.22
2018-12-27T05:52:44.144Z,99011.52
2018-12-27T05:53:47.063Z,99020.80
2018-12-27T05:54:49.983Z,99021.64
2018-12-27T05:55:52.999Z,99021.64
2018-12-27T05:56:55.931Z,99019.11
2018-12-27T05:57:59.169Z,99021.50
2018-12-27T05:59:02.121Z,99021.25
2018-12-27T06:00:05.078Z,99021.25
2018-12-27T06:01:08.054Z,99020.99
2018-12-27T06:02:19.973Z,99015.91
2018-12-27T06:03:22.861Z,99024.02
2018-12-27T06:04:25.804Z,99019.42
2018-12-27T06:05:28.796Z,99024.77
2018-12-27T06:06:31.757Z,99024.77
2018-12-27T06:07:35.095Z,99027.94
2018-12-27T06:08:38.095Z,99020.16
2018-12-27T06:09:41.106Z,99025.75
2018-12-27T06:10:46.534Z,99020.10
2018-12-27T06:11:49.470Z,99024.67
2018-12-27T06:12:52.405Z,99022.48
2018-12-27T06:13:55.347Z,99022.73
2018-12-27T06:14:58.339Z,99018.50
2018-12-27T06:16:01.384Z,99018.50
2018-12-27T06:17:04.619Z,99027.82
2018-12-27T06:18:07.741Z,99027.82
2018-12-27T06:19:10.679Z,99029.95
2018-12-27T06:20:13.686Z,99029.95
2018-12-27T06:21:16.630Z,99030.84
2018-12-27T06:22:19.578Z,99030.84
2018-12-27T06:23:23.099Z,99031.98
2018-12-27T06:24:26.024Z,99031.98
2018-12-27T06:25:30.506Z,99028.46
2018-12-27T06:26:33.542Z,99034.50
2018-12-27T06:27:36.980Z,99034.50
2018-12-27T06:28:39.913Z,99028.53
2018-12-27T06:29:44.518Z,99030.38
2018-12-27T06:44:03.098Z,99033.37
2018-12-27T06:45:06.311Z,99027.61
2018-12-27T06:46:09.484Z,99025.20
2018-12-27T06:47:12.433Z,99018.25
2018-12-27T06:48:15.945Z,99018.31
2018-12-27T06:49:19.229Z,99029.92
2018-12-27T06:50:22.172Z,99027.89
2018-12-27T06:51:25.083Z,99027.47
2018-12-27T06:52:28.019Z,99031.88
2018-12-27T06:53:31.487Z,99016.50
2018-12-27T06:54:35.054Z,99029.74
2018-12-27T06:55:38.882Z,99032.72
2018-12-27T06:56:41.789Z,99028.19
2018-12-27T06:57:44.707Z,99031.50
2018-12-27T06:58:48.255Z,99029.01
2018-12-27T06:59:51.158Z,99029.01
2018-12-27T07:00:54.123Z,99034.17
2018-12-27T07:02:02.505Z,99032.59
2018-12-27T07:03:05.571Z,99035.14
2018-12-27T07:04:08.571Z,99028.24
2018-12-27T07:05:11.580Z,99029.88
2018-12-27T07:06:14.522Z,99038.63
2018-12-27T07:07:17.449Z,99033.63
2018-12-27T07:08:20.822Z,99034.45
2018-12-27T07:09:24.201Z,99037.58
2018-12-27T07:10:27.195Z,99039.41
2018-12-27T07:11:30.155Z,99040.89
2018-12-27T07:12:33.071Z,99037.95
2018-12-27T07:13:35.987Z,99037.95
2018-12-27T07:14:39.297Z,99041.14
2018-12-27T07:15:42.338Z,99047.02
2018-12-27T07:16:45.285Z,99045.63
2018-12-27T07:17:48.658Z,99045.58
2018-12-27T07:18:51.562Z,99045.58
2018-12-27T07:19:55.009Z,99046.78
2018-12-27T07:20:58.312Z,99050.61
2018-12-27T07:22:01.237Z,99050.61
2018-12-27T07:23:04.234Z,99046.48
2018-12-27T07:24:07.242Z,99040.17
2018-12-27T07:25:10.239Z,99040.17
2018-12-27T07:26:13.155Z,99050.98
2018-12-27T07:27:16.580Z,99052.62
2018-12-27T07:28:20.013Z,99047.53
2018-12-27T07:29:24.815Z,99046.13
2018-12-27T07:30:30.585Z,99048.75
2018-12-27T07:31:34.903Z,99048.20
2018-12-27T07:32:37.947Z,99051.61
2018-12-27T07:33:41.391Z,99048.64
2018-12-27T07:34:44.425Z,99048.64
2018-12-27T07:35:47.511Z,99045.45
2018-12-27T07:36:50.552Z,99048.98
2018-12-27T07:37:53.532Z,99050.11
2018-12-27T07:38:58.271Z,99042.60
2018-12-27T07:40:01.879Z,99051.67
2018-12-27T07:41:05.932Z,99042.14
2018-12-27T07:42:10.837Z,99047.13
2018-12-27T07:43:13.513Z,99051.03
2018-12-27T07:44:16.463Z,99050.03
2018-12-27T07:45:19.386Z,99050.03
2018-12-27T07:46:23.096Z,99048.13
2018-12-27T07:47:26.081Z,99050.11
2018-12-27T07:48:29.025Z,99047.38
2018-12-27T07:49:31.991Z,99053.12
2018-12-27T07:50:34.896Z,99047.06
2018-12-27T07:51:37.844Z,99046.62
2018-12-27T07:52:42.047Z,99049.34
2018-12-27T07:53:44.979Z,99043.94
2018-12-27T07:54:48.193Z,99044.93
2018-12-27T07:55:53.364Z,99045.78
2018-12-27T07:56:56.534Z,99045.63
2018-12-27T07:57:59.539Z,99041.91
2018-12-27T07:59:02.850Z,99048.63
2018-12-27T08:00:05.781Z,99050.13
2018-12-27T08:01:09.191Z,99053.41
2018-12-27T08:02:14.394Z,99053.41
2018-12-27T08:03:17.447Z,99049.16
2018-12-27T08:04:20.391Z,99051.34
2018-12-27T08:05:23.808Z,99051.34
2018-12-27T08:06:26.732Z,99050.61
2018-12-27T08:07:29.636Z,99045.14
2018-12-27T08:08:32.747Z,99045.14
2018-12-27T08:09:35.679Z,99047.33
2018-12-27T08:10:38.611Z,99053.34
2018-12-27T08:11:43.854Z,99046.19
2018-12-27T08:12:47.221Z,99053.17
2018-12-27T08:13:50.202Z,99050.94
2018-12-27T08:14:55.341Z,99045.05
2018-12-27T08:15:58.376Z,99045.05
2018-12-27T08:17:04.364Z,99044.61
2018-12-27T08:18:07.670Z,99045.84
2018-12-27T08:19:11.231Z,99037.86
2018-12-27T08:20:16.738Z,99044.69
2018-12-27T08:21:20.735Z,99046.02
2018-12-27T08:22:23.680Z,99038.08
2018-12-27T08:23:26.674Z,99037.36
2018-12-27T08:24:31.394Z,99028.64
2018-12-27T08:25:38.809Z,99038.05
2018-12-27T08:26:41.722Z,99040.66
2018-12-27T08:27:44.835Z,99038.66
2018-12-27T08:28:50.533Z,99039.83
2018-12-27T08:29:53.549Z,99031.63
2018-12-27T08:30:56.521Z,99037.87
2018-12-27T08:31:59.572Z,99037.87
2018-12-27T08:33:04.360Z,99037.94
2018-12-27T08:34:07.403Z,99036.05
2018-12-27T08:35:11.639Z,99040.16
2018-12-27T08:36:15.211Z,99040.16
2018-12-27T08:37:18.150Z,99038.16
2018-12-27T08:38:21.054Z,99034.13
2018-12-27T08:39:23.997Z,99032.50
2018-12-27T08:40:27.410Z,99030.25
2018-12-27T08:41:30.424Z,99030.25
2018-12-27T08:42:33.587Z,99034.23
2018-12-27T08:43:36.921Z,99039.39
2018-12-27T08:44:39.877Z,99035.18
2018-12-27T08:45:42.787Z,99035.18
2018-12-27T08:46:45.806Z,99040.37
2018-12-27T08:47:49.177Z,99038.48
2018-12-27T08:48:52.477Z,99037.86
2018-12-27T08:49:55.392Z,99037.86
2018-12-27T08:51:01.957Z,99032.94
2018-12-27T08:52:05.005Z,99035.36
2018-12-27T08:53:08.301Z,99038.66
2018-12-27T08:54:11.225Z,99031.52
2018-12-27T08:55:14.670Z,99032.47
2018-12-27T08:56:19.188Z,99033.84
2018-12-27T08:57:22.643Z,99033.84
2018-12-27T08:58:25.590Z,99035.29
2018-12-27T08:59:28.515Z,99039.45
2018-12-27T09:00:31.425Z,99039.45
2018-12-27T09:01:34.755Z,99027.88
2018-12-27T09:02:37.826Z,99027.88
2018-12-27T09:03:40.751Z,99032.25
2018-12-27T09:04:44.096Z,99034.48
2018-12-27T09:05:47.494Z,99027.11
2018-12-27T09:06:50.491Z,99027.11
2018-12-27T09:07:53.924Z,99027.57
2018-12-27T09:08:56.860Z,99027.57
2018-12-27T09:09:59.818Z,99029.10
2018-12-27T09:11:03.289Z,99025.45
2018-12-27T09:12:06.375Z,99026.38
2018-12-27T09:13:09.421Z,99028.52
2018-12-27T09:14:12.808Z,99026.13
2018-12-27T09:15:15.807Z,99026.92
2018-12-27T09:16:19.948Z,99024.11
2018-12-27T09:17:23.019Z,99025.00
2018-12-27T09:18:26.008Z,99027.11
2018-12-27T09:19:28.926Z,99027.11
2018-12-27T09:20:32.297Z,99026.14
2018-12-27T09:21:36.365Z,99026.14
2018-12-27T09:22:39.734Z,99023.59
2018-12-27T09:23:42.778Z,99024.73
2018-12-27T09:24:48.613Z,99024.69
2018-12-27T09:25:52.063Z,99024.69
2018-12-27T09:26:55.398Z,99024.23
2018-12-27T09:27:59.463Z,99016.91
2018-12-27T09:29:02.673Z,99016.91
2018-12-27T09:30:07.243Z,99011.64
2018-12-27T09:31:11.375Z,99011.64
2018-12-27T09:32:15.070Z,99009.19
2018-12-27T09:33:18.536Z,99015.19
2018-12-27T09:34:21.479Z,99015.44
2018-12-27T09:35:26.503Z,99016.53
2018-12-27T09:36:31.876Z,99016.53
2018-12-27T09:37:35.165Z,99010.84
2018-12-27T09:38:38.546Z,99010.84
2018-12-27T09:39:42.109Z,99011.77
2018-12-27T09:40:46.134Z,99002.45
2018-12-27T09:41:49.341Z,99000.64
2018-12-27T09:42:52.302Z,98999.81
2018-12-27T09:43:55.314Z,98999.81
2018-12-27T09:44:59.206Z,99003.90
2018-12-27T09:46:02.239Z,99001.47
2018-12-27T09:47:05.534Z,99000.64
2018-12-27T09:48:09.074Z,99002.55
2018-12-27T09:49:12.949Z,98994.16
2018-12-27T09:50:15.988Z,99001.27
2018-12-27T09:51:21.004Z,99001.27
2018-12-27T09:52:23.992Z,98996.92
2018-12-27T09:53:27.145Z,98997.64
2018-12-27T09:54:30.671Z,98992.14
2018-12-27T09:55:37.179Z,98988.98
2018-12-27T09:56:40.323Z,98998.60
2018-12-27T09:57:43.889Z,98991.78
2018-12-27T09:58:46.870Z,98991.78
2018-12-27T09:59:50.170Z,98992.67
2018-12-27T10:00:53.743Z,98994.73
2018-12-27T10:01:57.047Z,98989.88
2018-12-27T10:03:00.586Z,98987.16
2018-12-27T10:04:03.990Z,98992.06
2018-12-27T10:05:17.260Z,98986.53
2018-12-27T10:06:11.790Z,98983.32
2018-12-27T10:07:15.430Z,98983.32
2018-12-27T10:08:19.522Z,98974.39
2018-12-27T10:09:22.802Z,98971.80
2018-12-27T10:10:26.355Z,98971.80
2018-12-27T10:11:29.555Z,98973.19
2018-12-27T10:12:32.716Z,98970.38
2018-12-27T10:13:36.424Z,98970.38
2018-12-27T10:14:42.360Z,98969.63
2018-12-27T10:15:53.005Z,98965.30
2018-12-27T10:16:57.081Z,98965.30
2018-12-27T10:18:00.661Z,98966.14
2018-12-27T10:19:03.674Z,98962.88
2018-12-27T10:20:07.607Z,98964.99
2018-12-27T10:21:10.700Z,98964.99
2018-12-27T10:22:14.171Z,98959.84
2018-12-27T10:23:21.129Z,98963.64
2018-12-27T10:24:24.438Z,98949.92
2018-12-27T10:25:31.001Z,98952.07
2018-12-27T10:26:36.449Z,98952.07
2018-12-27T10:27:39.467Z,98957.16
2018-12-27T10:28:44.291Z,98950.99
2018-12-27T10:29:51.347Z,98952.63
2018-12-27T10:30:59.694Z,98950.47
2018-12-27T10:32:01.444Z,98943.49
2018-12-27T10:33:07.099Z,98943.49
2018-12-27T10:34:12.401Z,98939.71
2018-12-27T10:35:22.286Z,98942.95
2018-12-27T10:36:33.781Z,98934.00
2018-12-27T10:37:37.122Z,98940.73
2018-12-27T10:38:42.650Z,98934.20
2018-12-27T10:39:49.604Z,98934.20
2018-12-27T10:40:54.955Z,98937.00
2018-12-27T10:42:05.035Z,98935.92
2018-12-27T10:43:08.482Z,98935.52
2018-12-27T10:44:14.353Z,98936.33
2018-12-27T10:45:17.282Z,98930.34
2018-12-27T10:46:21.390Z,98917.97
2018-12-27T10:47:24.772Z,98926.84
2018-12-27T10:48:28.658Z,98927.50
2018-12-27T10:49:32.467Z,98927.50
2018-12-27T10:50:40.042Z,98927.92
2018-12-27T10:51:41.017Z,98927.14
2018-12-27T10:52:54.486Z,98926.55
2018-12-27T10:54:02.283Z,98925.00
2018-12-27T10:55:05.878Z,98925.00
2018-12-27T10:56:18.847Z,98923.66
2018-12-27T10:57:22.113Z,98910.95
2018-12-27T10:58:28.502Z,98914.75
2018-12-27T10:59:32.094Z,98914.75
2018-12-27T11:00:35.434Z,98917.41
2018-12-27T11:01:39.625Z,98915.19
2018-12-27T11:02:42.700Z,98915.16
2018-12-27T11:03:47.218Z,98915.16
2018-12-27T11:04:53.043Z,98897.94
2018-12-27T11:05:56.687Z,98897.94
2018-12-27T11:07:03.201Z,98906.17
2018-12-27T11:08:06.545Z,98908.93
2018-12-27T11:09:09.812Z,98903.81
2018-12-27T11:10:13.237Z,98900.05
2018-12-27T11:11:16.318Z,98901.65
2018-12-27T11:12:20.886Z,98893.00
2018-12-27T11:13:24.210Z,98897.03
2018-12-27T11:14:27.276Z,98897.03
2018-12-27T11:15:30.598Z,98892.39
2018-12-27T11:16:40.048Z,98879.45
2018-12-27T11:17:43.472Z,98878.28
2018-12-27T11:18:49.792Z,98878.28
2018-12-27T11:19:52.873Z,98889.06
2018-12-27T11:20:56.187Z,98877.16
2018-12-27T11:21:59.694Z,98885.59
2018-12-27T11:23:05.526Z,98877.98
2018-12-27T11:24:10.308Z,98880.31
2018-12-27T11:25:15.189Z,98872.17
2018-12-27T11:26:18.469Z,98870.23
2018-12-27T11:27:21.863Z,98868.01
2018-12-27T11:28:25.921Z,98867.02
2018-12-27T11:29:29.065Z,98867.02
2018-12-27T11:43:01.702Z,98846.88
2018-12-27T11:44:04.658Z,98836.61
2018-12-27T11:45:08.216Z,98836.61
2018-12-27T11:46:11.512Z,98837.39
2018-12-27T11:47:14.429Z,98845.30
2018-12-27T11:48:18.314Z,98837.94
2018-12-27T11:49:21.491Z,98837.94
2018-12-27T11:50:26.504Z,98830.39
2018-12-27T11:51:36.570Z,98826.05
2018-12-27T11:52:40.017Z,98833.42
2018-12-27T11:53:46.214Z,98833.64
2018-12-27T11:54:52.111Z,98833.64
2018-12-27T11:55:55.601Z,98836.10
2018-12-27T11:56:59.192Z,98834.03
2018-12-27T11:58:02.393Z,98827.20
2018-12-27T11:59:08.398Z,98829.95
2018-12-27T12:00:11.838Z,98829.95
2018-12-27T12:01:16.877Z,98829.22
2018-12-27T12:02:19.952Z,98830.61
2018-12-27T12:03:23.027Z,98830.61
2018-12-27T12:04:26.891Z,98825.74
2018-12-27T12:05:29.909Z,98827.59
2018-12-27T12:06:33.076Z,98827.59
2018-12-27T12:07:36.039Z,98826.42
2018-12-27T12:08:39.032Z,98822.03
2018-12-27T12:09:44.530Z,98814.23
2018-12-27T12:10:47.497Z,98828.56
2018-12-27T12:11:50.636Z,98822.91
2018-12-27T12:12:55.486Z,98825.38
2018-12-27T12:13:58.895Z,98812.13
2018-12-27T12:15:02.057Z,98815.88
2018-12-27T12:16:05.082Z,98815.88
2018-12-27T12:17:10.096Z,98815.06
2018-12-27T12:18:13.184Z,98812.08
2018-12-27T12:19:28.936Z,98813.98
2018-12-27T12:20:31.957Z,98810.95
2018-12-27T12:21:34.926Z,98817.44
2018-12-27T12:22:38.036Z,98817.44
2018-12-27T12:23:41.329Z,98815.30
2018-12-27T12:24:50.632Z,98815.62
2018-12-27T12:25:55.192Z,98813.38
2018-12-27T12:26:58.488Z,98810.48
2018-12-27T12:28:04.333Z,98807.99
2018-12-27T12:29:07.616Z,98806.12
2018-12-27T12:30:10.581Z,98802.64
2018-12-27T12:31:15.636Z,98802.64
2018-12-27T12:32:18.846Z,98811.34
2018-12-27T12:33:22.081Z,98804.10
2018-12-27T12:34:25.531Z,98804.10
2018-12-27T12:35:29.037Z,98807.55
2018-12-27T12:36:33.709Z,98803.14
2018-12-27T12:37:38.475Z,98803.14
2018-12-27T12:38:41.536Z,98791.56
2018-12-27T12:39:45.901Z,98806.99
2018-12-27T12:40:50.319Z,98807.39
2018-12-27T12:41:53.293Z,98807.39
2018-12-27T12:42:59.864Z,98807.39
2018-12-27T12:44:03.323Z,98811.39
2018-12-27T12:45:06.726Z,98805.36
2018-12-27T12:46:13.291Z,98805.36
2018-12-27T12:47:16.415Z,98812.91
2018-12-27T12:48:19.604Z,98806.41
2018-12-27T12:49:23.018Z,98816.10
2018-12-27T12:50:27.975Z,98819.16
2018-12-27T12:51:31.295Z,98815.94
2018-12-27T12:52:34.223Z,98806.72
2018-12-27T12:53:37.364Z,98806.72